Marin Sunshine — WDE5919 — position and weather

sailwx.info

Track history (hours):
 
Tides and Currents Weather Stations Pressure Air Temp Water Temp Dewpoint Dewpoint Depression Visibility Wind Speed Wind Dir Waves Ship Positions

Marin Sunshine

Owner: Marine Express, alameda, CA. More information available from US FCC via Universal Licensing System and Coast Guard Vessel Documentation Center.

Last reported at 2015-Mar-03 00:05 UTC. Time now 2015-Mar-03 07:27 UTC.
Position N 37°47' W 122°17'.

MMSI: 367373280.

Date/timePositionNaut miles runAvg speedWind from/ knotsBaromVisibWave heightAir tempDewpointWater temp
2015-Mar-03 00:05N 37°47' W 122°17'0 0.0
2015-Mar-02 23:32N 37°47' W 122°17'0 0.0
2015-Mar-02 22:33N 37°47' W 122°17'0 0.0
2015-Mar-02 21:33N 37°47' W 122°17'0 0.0
2015-Mar-02 20:33N 37°47' W 122°17'0 0.0
2015-Mar-02 19:12N 37°47' W 122°17'0 0.0
2015-Mar-02 18:33N 37°47' W 122°17'0 0.0
2015-Mar-02 17:33N 37°47' W 122°17'  
2015-Feb-27 23:19N 37°47' W 122°17'0 0.0
2015-Feb-27 20:33N 37°47' W 122°17'0 0.0
2015-Feb-27 19:33N 37°47' W 122°17'0 0.0
2015-Feb-27 04:33N 37°47' W 122°17'7 7.4
2015-Feb-27 03:33N 37°53' W 122°24'7 7.3
2015-Feb-27 02:34N 37°60' W 122°25'35 7.0
2015-Feb-26 21:32N 38°05' W 121°41'6 5.5
2015-Feb-26 20:31N 38°04' W 121°34'5 5.7
2015-Feb-26 19:33N 38°01' W 121°28'5 4.6
2015-Feb-26 18:33N 37°59' W 121°23'3 2.9
2015-Feb-26 17:33N 37°57' W 121°20'0 0.1
2015-Feb-26 16:33N 37°57' W 121°20'0 0.0
2015-Feb-26 15:33N 37°57' W 121°20'1 1.0
2015-Feb-26 14:33N 37°57' W 121°21'0 0.0
2015-Feb-25 00:07N 37°57' W 121°21'1 1.8
2015-Feb-24 23:33N 37°57' W 121°20'0 0.2
2015-Feb-24 22:33N 37°57' W 121°20'1 0.8
2015-Feb-24 21:33N 37°57' W 121°21'0 0.0
2015-Feb-24 20:33N 37°57' W 121°21'0 0.0
2015-Feb-24 19:33N 37°57' W 121°21'0 0.0
2015-Feb-24 18:33N 37°57' W 121°21'0 0.0
2015-Feb-24 17:33N 37°57' W 121°21'0 0.0
2015-Feb-24 16:33N 37°57' W 121°21'1 0.7
2015-Feb-24 15:33N 37°57' W 121°20'0 0.3
2015-Feb-24 14:33N 37°57' W 121°20'1 1.0
2015-Feb-24 13:33N 37°57' W 121°21'  
Track history (hours):
 
Tides and Currents Weather Stations Pressure Air Temp Water Temp Dewpoint Dewpoint Depression Visibility Wind Speed Wind Dir Waves Ship Positions

Marin Sunshine

Owner: Marine Express, alameda, CA. More information available from US FCC via Universal Licensing System and Coast Guard Vessel Documentation Center.

Last reported at 2015-Mar-03 00:05 UTC. Time now 2015-Mar-03 07:27 UTC.
Position N 37°47' W 122°17'.

MMSI: 367373280.

Date/timePositionNaut miles runAvg speedWind from/ knotsBaromVisibWave heightAir tempDewpointWater temp
2015-Mar-03 00:05N 37°47' W 122°17'0 0.0
2015-Mar-02 23:32N 37°47' W 122°17'0 0.0
2015-Mar-02 22:33N 37°47' W 122°17'0 0.0
2015-Mar-02 21:33N 37°47' W 122°17'0 0.0
2015-Mar-02 20:33N 37°47' W 122°17'0 0.0
2015-Mar-02 19:12N 37°47' W 122°17'0 0.0
2015-Mar-02 18:33N 37°47' W 122°17'0 0.0
2015-Mar-02 17:33N 37°47' W 122°17'  
2015-Feb-27 23:19N 37°47' W 122°17'0 0.0
2015-Feb-27 20:33N 37°47' W 122°17'0 0.0
2015-Feb-27 19:33N 37°47' W 122°17'0 0.0
2015-Feb-27 04:33N 37°47' W 122°17'7 7.4
2015-Feb-27 03:33N 37°53' W 122°24'7 7.3
2015-Feb-27 02:34N 37°60' W 122°25'35 7.0
2015-Feb-26 21:32N 38°05' W 121°41'6 5.5
2015-Feb-26 20:31N 38°04' W 121°34'5 5.7
2015-Feb-26 19:33N 38°01' W 121°28'5 4.6
2015-Feb-26 18:33N 37°59' W 121°23'3 2.9
2015-Feb-26 17:33N 37°57' W 121°20'0 0.1
2015-Feb-26 16:33N 37°57' W 121°20'0 0.0
2015-Feb-26 15:33N 37°57' W 121°20'1 1.0
2015-Feb-26 14:33N 37°57' W 121°21'0 0.0
2015-Feb-25 00:07N 37°57' W 121°21'1 1.8
2015-Feb-24 23:33N 37°57' W 121°20'0 0.2
2015-Feb-24 22:33N 37°57' W 121°20'1 0.8
2015-Feb-24 21:33N 37°57' W 121°21'0 0.0
2015-Feb-24 20:33N 37°57' W 121°21'0 0.0
2015-Feb-24 19:33N 37°57' W 121°21'0 0.0
2015-Feb-24 18:33N 37°57' W 121°21'0 0.0
2015-Feb-24 17:33N 37°57' W 121°21'0 0.0
2015-Feb-24 16:33N 37°57' W 121°21'1 0.7
2015-Feb-24 15:33N 37°57' W 121°20'0 0.3
2015-Feb-24 14:33N 37°57' W 121°20'1 1.0
2015-Feb-24 13:33N 37°57' W 121°21'  

Dump ship's entire track history